createdAt,value
2023-01-17T00:01:12.398Z,95873.78
2023-01-17T00:03:59.069Z,95875.56
2023-01-17T00:06:44.550Z,95879.28
2023-01-17T00:09:30.981Z,95881.69
2023-01-17T00:11:58.806Z,95885.16
2023-01-17T00:14:27.290Z,95883.63
2023-01-17T00:16:54.246Z,95889.75
2023-01-17T00:19:39.401Z,95881.84
2023-01-17T00:22:28.916Z,95886.22
2023-01-17T00:25:14.039Z,95893.06
2023-01-17T00:27:40.590Z,95898.31
2023-01-17T00:30:08.512Z,95895.00
2023-01-17T00:32:34.977Z,95901.13
2023-01-17T00:35:01.555Z,95901.22
2023-01-17T00:37:28.078Z,95901.97
2023-01-17T00:39:54.572Z,95904.41
2023-01-17T00:42:21.094Z,95903.50
2023-01-17T00:45:06.456Z,95905.47
2023-01-17T00:47:53.116Z,95915.69
2023-01-17T00:50:38.393Z,95917.56
2023-01-17T00:53:24.175Z,95920.38
2023-01-17T00:56:09.219Z,95917.56
2023-01-17T00:58:54.371Z,95914.25
2023-01-17T01:01:39.646Z,95921.00
2023-01-17T01:04:25.044Z,95922.53
2023-01-17T01:07:10.158Z,95931.00
2023-01-17T01:09:55.510Z,95924.72
2023-01-17T01:12:40.708Z,95926.25
2023-01-17T01:15:26.650Z,95928.97
2023-01-17T01:18:11.607Z,95929.28
2023-01-17T01:20:58.011Z,95937.97
2023-01-17T01:23:43.159Z,95945.00
2023-01-17T01:26:28.283Z,95940.44
2023-01-17T01:29:13.355Z,95939.63
2023-01-17T01:31:58.590Z,95944.59
2023-01-17T01:34:25.180Z,95943.78
2023-01-17T01:36:51.768Z,95943.88
2023-01-17T01:39:18.452Z,95954.13
2023-01-17T01:41:45.111Z,95948.03
2023-01-17T01:44:47.910Z,95948.94
2023-01-17T01:47:26.979Z,95950.59
2023-01-17T01:49:53.811Z,95951.41
2023-01-17T01:52:23.185Z,95951.53
2023-01-17T01:54:55.662Z,95947.25
2023-01-17T01:57:29.470Z,95950.78
2023-01-17T02:00:02.330Z,95946.88
2023-01-17T02:02:31.055Z,95940.94
2023-01-17T02:04:59.721Z,95942.81
2023-01-17T02:07:33.289Z,95943.22
2023-01-17T02:10:00.592Z,95946.00
2023-01-17T02:12:27.673Z,95947.66
2023-01-17T02:14:54.278Z,95945.56
2023-01-17T02:17:23.635Z,95958.50
2023-01-17T02:20:35.104Z,95954.25
2023-01-17T02:23:13.652Z,95951.69
2023-01-17T02:26:28.467Z,95944.94
2023-01-17T02:29:19.732Z,95950.31
2023-01-17T02:31:49.614Z,95946.06
2023-01-17T02:34:54.492Z,95939.34
2023-01-17T02:37:29.072Z,95941.19
2023-01-17T02:40:21.033Z,95940.66
2023-01-17T02:42:54.274Z,95957.63
2023-01-17T02:45:22.662Z,95956.91
2023-01-17T02:47:49.267Z,95950.81
2023-01-17T02:50:20.661Z,95952.25
2023-01-17T02:53:08.058Z,95948.13
2023-01-17T02:55:56.499Z,95945.56
2023-01-17T02:58:50.346Z,95936.22
2023-01-17T03:01:17.381Z,95940.03
2023-01-17T03:04:08.465Z,95935.06
2023-01-17T03:06:44.437Z,95925.84
2023-01-17T03:09:14.648Z,95928.44
2023-01-17T03:11:42.445Z,95924.06
2023-01-17T03:14:09.039Z,95915.72
2023-01-17T03:16:35.769Z,95911.16
2023-01-17T03:19:02.799Z,95911.28
2023-01-17T03:21:29.403Z,95921.78
2023-01-17T03:23:55.978Z,95932.13
2023-01-17T03:26:22.690Z,95927.78
2023-01-17T03:28:49.267Z,95923.47
2023-01-17T03:31:18.022Z,95930.47
2023-01-17T03:33:44.647Z,95927.88
2023-01-17T03:36:12.262Z,95927.06
2023-01-17T03:38:38.955Z,95924.56
2023-01-17T03:41:05.924Z,95919.50
2023-01-17T03:43:32.488Z,95918.47
2023-01-17T03:46:04.498Z,95919.19
2023-01-17T03:48:31.297Z,95917.53
2023-01-17T03:50:58.281Z,95917.53
2023-01-17T03:53:24.966Z,95911.44
2023-01-17T03:55:51.931Z,95911.34
2023-01-17T03:58:18.706Z,95912.19
2023-01-17T04:00:45.260Z,95908.78
2023-01-17T04:03:11.855Z,95889.03
2023-01-17T04:05:38.453Z,95897.78
2023-01-17T04:08:07.122Z,95889.31
2023-01-17T04:10:34.013Z,95892.00
2023-01-17T04:13:00.763Z,95896.34
2023-01-17T04:15:27.385Z,95893.88
2023-01-17T04:17:53.939Z,95886.19
2023-01-17T04:20:38.983Z,95888.06
2023-01-17T04:23:06.708Z,95897.47
2023-01-17T04:25:33.786Z,95895.63
2023-01-17T04:28:01.651Z,95895.63
2023-01-17T04:30:29.003Z,95891.91
2023-01-17T04:32:55.855Z,95897.72
2023-01-17T04:35:22.808Z,95899.16
2023-01-17T04:37:49.663Z,95903.50
2023-01-17T04:40:16.461Z,95895.56
2023-01-17T04:42:45.326Z,95890.28
2023-01-17T04:45:12.782Z,95890.91
2023-01-17T04:47:39.489Z,95887.38
2023-01-17T04:50:06.968Z,95882.22
2023-01-17T04:52:33.582Z,95882.22
2023-01-17T04:55:00.102Z,95877.69
2023-01-17T04:57:27.187Z,95881.28
2023-01-17T04:59:53.789Z,95882.66
2023-01-17T05:02:20.475Z,95879.13
2023-01-17T05:04:47.148Z,95878.19
2023-01-17T05:07:13.999Z,95875.63
2023-01-17T05:09:40.584Z,95876.25
2023-01-17T05:12:07.389Z,95876.97
2023-01-17T05:14:34.552Z,95881.41
2023-01-17T05:17:03.130Z,95882.16
2023-01-17T05:19:29.875Z,95878.75
2023-01-17T05:22:03.860Z,95887.41
2023-01-17T05:24:31.504Z,95889.19
2023-01-17T05:27:03.823Z,95881.13
2023-01-17T05:29:30.797Z,95880.91
2023-01-17T05:31:57.933Z,95879.06
2023-01-17T05:34:24.813Z,95883.94
2023-01-17T05:36:51.522Z,95873.69
2023-01-17T05:39:18.512Z,95884.03
2023-01-17T05:41:45.145Z,95882.16
2023-01-17T05:44:11.776Z,95889.09
2023-01-17T05:46:38.512Z,95882.38
2023-01-17T05:49:05.562Z,95879.78
2023-01-17T05:51:32.463Z,95885.69
2023-01-17T05:53:59.065Z,95893.22
2023-01-17T05:56:25.845Z,95886.22
2023-01-17T05:58:52.493Z,95888.81
2023-01-17T06:01:19.727Z,95887.88
2023-01-17T06:03:46.403Z,95892.00
2023-01-17T06:06:13.355Z,95891.69
2023-01-17T06:08:39.966Z,95897.38
2023-01-17T06:11:06.584Z,95899.88
2023-01-17T06:13:33.187Z,95906.72
2023-01-17T06:16:03.043Z,95910.22
2023-01-17T06:18:31.179Z,95912.72
2023-01-17T06:20:57.966Z,95910.75
2023-01-17T06:23:25.041Z,95909.09
2023-01-17T06:25:51.983Z,95909.81
2023-01-17T06:28:21.154Z,95907.84
2023-01-17T06:30:48.889Z,95899.25
2023-01-17T06:33:16.274Z,95900.31
2023-01-17T06:35:53.542Z,95890.97
2023-01-17T06:38:20.775Z,95896.28
2023-01-17T06:40:47.360Z,95884.06
2023-01-17T06:43:14.152Z,95892.53
2023-01-17T06:45:40.730Z,95888.91
2023-01-17T06:48:07.523Z,95876.28
2023-01-17T06:50:34.399Z,95874.94
2023-01-17T06:53:03.346Z,95873.50
2023-01-17T06:55:31.061Z,95873.38
2023-01-17T06:57:59.632Z,95862.00
2023-01-17T07:00:30.283Z,95861.06
2023-01-17T07:02:56.916Z,95862.09
2023-01-17T07:05:23.598Z,95860.66
2023-01-17T07:07:50.187Z,95857.44
2023-01-17T07:10:16.955Z,95864.38
2023-01-17T07:12:43.567Z,95866.97
2023-01-17T07:15:10.934Z,95861.59
2023-01-17T07:17:37.961Z,95857.97
2023-01-17T07:20:05.181Z,95861.16
2023-01-17T07:22:31.832Z,95866.97
2023-01-17T07:24:58.830Z,95862.22
2023-01-17T07:27:27.830Z,95859.72
2023-01-17T07:29:54.508Z,95858.91
2023-01-17T07:32:21.167Z,95859.94
2023-01-17T07:34:47.892Z,95859.63
2023-01-17T07:37:15.404Z,95859.50
2023-01-17T07:39:42.467Z,95857.47
2023-01-17T07:42:09.344Z,95852.78
2023-01-17T07:44:36.114Z,95852.28
2023-01-17T07:47:04.278Z,95863.44
2023-01-17T07:49:30.967Z,95859.19
2023-01-17T07:51:57.637Z,95862.41
2023-01-17T07:54:24.195Z,95854.53
2023-01-17T07:56:50.885Z,95850.91
2023-01-17T07:59:18.193Z,95846.16
2023-01-17T08:01:44.912Z,95850.81
2023-01-17T08:04:11.684Z,95844.19
2023-01-17T08:06:42.125Z,95842.63
2023-01-17T08:09:08.878Z,95834.88
2023-01-17T08:11:35.874Z,95833.13
2023-01-17T08:14:17.080Z,95842.97
2023-01-17T08:16:43.764Z,95848.94
2023-01-17T08:19:10.468Z,95852.16
2023-01-17T08:21:37.099Z,95851.44
2023-01-17T08:24:03.914Z,95851.16
2023-01-17T08:26:30.508Z,95845.63
2023-01-17T08:29:00.482Z,95846.91
2023-01-17T08:31:29.724Z,95851.25
2023-01-17T08:33:57.283Z,95852.25
2023-01-17T08:36:25.884Z,95848.94
2023-01-17T08:38:53.666Z,95853.91
2023-01-17T08:41:21.363Z,95849.66
2023-01-17T08:43:49.578Z,95844.91
2023-01-17T08:46:16.648Z,95847.91
2023-01-17T08:48:44.045Z,95852.56
2023-01-17T08:51:11.644Z,95845.13
2023-01-17T08:53:38.447Z,95843.03
2023-01-17T08:56:06.095Z,95846.97
2023-01-17T08:58:33.585Z,95838.78
2023-01-17T09:01:05.659Z,95840.13
2023-01-17T09:03:34.089Z,95841.47
2023-01-17T09:06:08.350Z,95846.09
2023-01-17T09:08:35.579Z,95839.75
2023-01-17T09:11:11.710Z,95840.03
2023-01-17T09:13:39.509Z,95838.69
2023-01-17T09:16:06.997Z,95839.19
2023-01-17T09:18:35.067Z,95842.16
2023-01-17T09:21:11.378Z,95847.13
2023-01-17T09:23:38.127Z,95841.00
2023-01-17T09:26:04.935Z,95832.09
2023-01-17T09:28:31.505Z,95836.03
2023-01-17T09:30:58.198Z,95836.16
2023-01-17T09:33:25.300Z,95840.41
2023-01-17T09:35:51.836Z,95837.91
2023-01-17T09:38:18.455Z,95833.78
2023-01-17T09:40:47.804Z,95832.56
2023-01-17T09:43:41.506Z,95832.19
2023-01-17T09:46:22.557Z,95834.06
2023-01-17T09:48:57.483Z,95831.13
2023-01-17T09:51:24.551Z,95831.72
2023-01-17T09:53:53.132Z,95830.63
2023-01-17T09:56:29.643Z,95829.19
2023-01-17T09:59:08.998Z,95836.47
2023-01-17T10:02:03.333Z,95836.34
2023-01-17T10:05:04.887Z,95828.91
2023-01-17T10:07:57.941Z,95835.09
2023-01-17T10:10:51.583Z,95848.13
2023-01-17T10:13:50.951Z,95838.63
2023-01-17T10:16:36.231Z,95842.81
2023-01-17T10:19:35.315Z,95838.81
2023-01-17T10:22:02.297Z,95825.41
2023-01-17T10:24:47.421Z,95817.81
2023-01-17T10:27:25.921Z,95820.03
2023-01-17T10:29:54.209Z,95817.72
2023-01-17T10:32:26.142Z,95804.19
2023-01-17T10:34:53.570Z,95806.09
2023-01-17T10:37:30.837Z,95803.72
2023-01-17T10:40:03.156Z,95804.53
2023-01-17T10:42:43.877Z,95809.53
2023-01-17T10:45:18.685Z,95803.06
2023-01-17T10:47:52.375Z,95809.34
2023-01-17T10:50:21.722Z,95809.75
2023-01-17T10:53:08.315Z,95809.16
2023-01-17T10:55:51.704Z,95812.09
2023-01-17T10:58:18.348Z,95809.63
2023-01-17T11:01:06.769Z,95799.31
2023-01-17T11:03:34.758Z,95798.97
2023-01-17T11:06:24.344Z,95803.69
2023-01-17T11:08:59.039Z,95787.78
2023-01-17T11:11:37.534Z,95786.19
2023-01-17T11:14:14.140Z,95785.72
2023-01-17T11:16:40.788Z,95784.69
2023-01-17T11:19:26.658Z,95787.50
2023-01-17T11:22:05.413Z,95783.22
2023-01-17T11:24:38.837Z,95777.84
2023-01-17T11:27:06.785Z,95778.06
2023-01-17T11:29:37.170Z,95776.19
2023-01-17T11:32:22.135Z,95774.22
2023-01-17T11:35:13.293Z,95779.44
2023-01-17T11:38:06.787Z,95770.69
2023-01-17T11:40:38.418Z,95758.91
2023-01-17T11:43:11.168Z,95761.38
2023-01-17T11:45:39.379Z,95755.59
2023-01-17T11:48:09.081Z,95749.09
2023-01-17T11:51:03.722Z,95754.06
2023-01-17T11:53:34.027Z,95746.59
2023-01-17T11:56:10.423Z,95745.69
2023-01-17T11:58:45.848Z,95746.63
2023-01-17T12:01:30.742Z,95735.66
2023-01-17T12:04:08.261Z,95740.69
2023-01-17T12:06:57.218Z,95728.75
2023-01-17T12:09:47.704Z,95726.84
2023-01-17T12:12:43.984Z,95718.53
2023-01-17T12:15:25.762Z,95725.47
2023-01-17T12:18:22.233Z,95731.34
2023-01-17T12:21:15.360Z,95729.59
2023-01-17T12:24:39.198Z,95714.41
2023-01-17T12:27:23.894Z,95713.53
2023-01-17T12:29:58.868Z,95720.69
2023-01-17T12:32:31.260Z,95716.38
2023-01-17T12:35:12.418Z,95708.81
2023-01-17T12:37:44.016Z,95706.81
2023-01-17T12:40:22.225Z,95696.44
2023-01-17T12:43:08.628Z,95693.19
2023-01-17T12:45:42.683Z,95686.47
2023-01-17T12:48:34.342Z,95691.44
2023-01-17T12:51:17.622Z,95679.06
2023-01-17T12:54:02.283Z,95683.56
2023-01-17T12:56:34.594Z,95677.06
2023-01-17T12:59:19.354Z,95675.25
2023-01-17T13:01:57.655Z,95673.22
2023-01-17T13:04:26.906Z,95672.97
2023-01-17T13:06:59.819Z,95665.78
2023-01-17T13:09:34.983Z,95661.13
2023-01-17T13:12:18.029Z,95664.56
2023-01-17T13:14:48.475Z,95658.53
2023-01-17T13:17:32.890Z,95662.00
2023-01-17T13:20:08.903Z,95647.94
2023-01-17T13:22:38.965Z,95649.94
2023-01-17T13:25:42.346Z,95645.44
2023-01-17T13:28:36.009Z,95643.63
2023-01-17T13:31:27.037Z,95644.16
2023-01-17T13:34:18.489Z,95651.00
2023-01-17T13:37:06.807Z,95643.19
2023-01-17T13:39:53.624Z,95641.44
2023-01-17T13:42:34.747Z,95634.19
2023-01-17T13:45:08.308Z,95634.19
2023-01-17T13:47:38.857Z,95643.09
2023-01-17T13:50:06.716Z,95646.56
2023-01-17T13:52:33.791Z,95650.56
2023-01-17T13:55:05.481Z,95649.59
2023-01-17T13:57:43.331Z,95651.13
2023-01-17T14:00:16.443Z,95659.84
2023-01-17T14:02:43.991Z,95665.28
2023-01-17T14:05:23.927Z,95654.47
2023-01-17T14:08:06.190Z,95656.72
2023-01-17T14:10:32.677Z,95651.41
2023-01-17T14:12:59.570Z,95655.78
2023-01-17T14:15:28.203Z,95655.91
2023-01-17T14:17:58.736Z,95654.28
2023-01-17T14:20:25.240Z,95661.25
2023-01-17T14:22:58.155Z,95663.72
2023-01-17T14:25:28.554Z,95653.59
2023-01-17T14:28:00.400Z,95657.84
2023-01-17T14:30:28.986Z,95656.19
2023-01-17T14:32:58.538Z,95661.50
2023-01-17T14:35:30.039Z,95660.81
2023-01-17T14:38:02.944Z,95664.84
2023-01-17T14:40:34.305Z,95662.34
2023-01-17T14:43:09.950Z,95656.31
2023-01-17T14:45:37.870Z,95664.84
2023-01-17T14:48:07.718Z,95670.03
2023-01-17T14:50:40.025Z,95670.25
2023-01-17T14:53:12.789Z,95675.69
2023-01-17T14:55:49.828Z,95672.41
2023-01-17T14:58:25.301Z,95676.78
2023-01-17T15:00:56.485Z,95684.69
2023-01-17T15:03:23.459Z,95680.78
2023-01-17T15:05:52.975Z,95685.16
2023-01-17T15:08:23.481Z,95684.13
2023-01-17T15:10:58.819Z,95681.16
2023-01-17T15:13:45.354Z,95688.59
2023-01-17T15:16:30.959Z,95688.13
2023-01-17T15:18:57.994Z,95675.03
2023-01-17T15:21:31.098Z,95689.53
2023-01-17T15:24:00.155Z,95688.25
2023-01-17T15:26:32.176Z,95682.22
2023-01-17T15:29:15.821Z,95683.28
2023-01-17T15:31:48.714Z,95680.81
2023-01-17T15:34:25.995Z,95692.22
2023-01-17T15:36:53.638Z,95689.97
2023-01-17T15:39:30.470Z,95690.34
2023-01-17T15:41:59.591Z,95681.03
2023-01-17T15:44:47.921Z,95674.88
2023-01-17T15:47:26.770Z,95678.03
2023-01-17T15:49:53.491Z,95674.63
2023-01-17T15:52:21.475Z,95669.94
2023-01-17T15:55:12.633Z,95676.25
2023-01-17T15:57:39.757Z,95679.22
2023-01-17T16:00:20.298Z,95681.06
2023-01-17T16:02:55.374Z,95681.63
2023-01-17T16:05:22.458Z,95680.81
2023-01-17T16:08:02.646Z,95674.22
2023-01-17T16:10:38.002Z,95680.66
2023-01-17T16:13:06.147Z,95678.41
2023-01-17T16:15:35.324Z,95689.09
2023-01-17T16:18:03.579Z,95692.75
2023-01-17T16:20:39.319Z,95687.69
2023-01-17T16:23:05.874Z,95687.19
2023-01-17T16:25:32.982Z,95694.44
2023-01-17T16:27:59.966Z,95686.91
2023-01-17T16:30:27.864Z,95688.78
2023-01-17T16:32:56.576Z,95686.19
2023-01-17T16:35:31.918Z,95686.31
2023-01-17T16:38:06.999Z,95689.00
2023-01-17T16:40:39.871Z,95688.19
2023-01-17T16:43:06.504Z,95684.88
2023-01-17T16:45:41.100Z,95684.06
2023-01-17T16:48:08.645Z,95687.59
2023-01-17T16:50:35.320Z,95693.91
2023-01-17T16:53:02.030Z,95691.75
2023-01-17T16:55:28.590Z,95690.09
2023-01-17T16:57:58.125Z,95694.47
2023-01-17T17:00:24.900Z,95695.38
2023-01-17T17:02:52.557Z,95687.84
2023-01-17T17:05:20.117Z,95689.00
2023-01-17T17:07:50.820Z,95690.16
2023-01-17T17:10:19.845Z,95687.19
2023-01-17T17:12:46.964Z,95695.88
2023-01-17T17:15:13.654Z,95700.94
2023-01-17T17:17:43.111Z,95697.53
2023-01-17T17:20:12.777Z,95693.50
2023-01-17T17:22:48.884Z,95692.50
2023-01-17T17:25:15.976Z,95696.13
2023-01-17T17:27:42.844Z,95699.75
2023-01-17T17:30:10.448Z,95695.00
2023-01-17T17:32:37.028Z,95695.09
2023-01-17T17:35:03.769Z,95690.00
2023-01-17T17:37:30.489Z,95695.63
2023-01-17T17:39:57.749Z,95698.50
2023-01-17T17:42:24.617Z,95700.06
2023-01-17T17:44:51.563Z,95711.97
2023-01-17T17:47:18.197Z,95719.53
2023-01-17T17:49:44.810Z,95721.59
2023-01-17T17:52:11.648Z,95725.03
2023-01-17T17:54:38.316Z,95717.38
2023-01-17T17:57:04.956Z,95718.19
2023-01-17T17:59:31.819Z,95715.00
2023-01-17T18:01:59.714Z,95725.56
2023-01-17T18:04:26.822Z,95724.63
2023-01-17T18:06:59.617Z,95723.28
2023-01-17T18:09:26.211Z,95728.53
2023-01-17T18:11:52.831Z,95732.59
2023-01-17T18:14:21.194Z,95734.13
2023-01-17T18:16:48.265Z,95736.00
2023-01-17T18:19:19.505Z,95738.69
2023-01-17T18:21:46.523Z,95739.72
2023-01-17T18:24:15.721Z,95744.16
2023-01-17T18:26:45.028Z,95742.59
2023-01-17T18:29:17.839Z,95744.47
2023-01-17T18:31:46.443Z,95751.81
2023-01-17T18:34:15.452Z,95750.88
2023-01-17T18:36:42.926Z,95758.63
2023-01-17T18:39:19.898Z,95768.97
2023-01-17T18:41:46.900Z,95763.09
2023-01-17T18:44:13.422Z,95764.75
2023-01-17T18:46:42.000Z,95763.38
2023-01-17T18:49:11.748Z,95771.47
2023-01-17T18:51:38.677Z,95770.53
2023-01-17T18:54:07.118Z,95773.84
2023-01-17T18:56:34.539Z,95775.50
2023-01-17T18:59:01.781Z,95775.59
2023-01-17T19:01:31.204Z,95775.59
2023-01-17T19:04:00.461Z,95779.00
2023-01-17T19:06:30.407Z,95777.56
2023-01-17T19:08:58.569Z,95788.72
2023-01-17T19:11:27.169Z,95788.91
2023-01-17T19:13:54.414Z,95789.13
2023-01-17T19:16:28.134Z,95793.47
2023-01-17T19:18:56.561Z,95796.03
2023-01-17T19:21:25.546Z,95794.50
2023-01-17T19:23:53.531Z,95805.66
2023-01-17T19:26:20.564Z,95800.69
2023-01-17T19:28:48.778Z,95805.84
2023-01-17T19:31:23.430Z,95807.72
2023-01-17T19:33:52.408Z,95802.56
2023-01-17T19:36:27.417Z,95801.00
2023-01-17T19:39:03.855Z,95809.03
2023-01-17T19:41:32.212Z,95805.72
2023-01-17T19:44:09.520Z,95805.84
2023-01-17T19:46:36.963Z,95806.84
2023-01-17T19:49:05.995Z,95807.66
2023-01-17T19:51:32.719Z,95811.44
2023-01-17T19:54:01.351Z,95821.78
2023-01-17T19:56:28.764Z,95819.19
2023-01-17T19:58:57.213Z,95813.38
2023-01-17T20:01:28.394Z,95813.59
2023-01-17T20:03:57.598Z,95814.41
2023-01-17T20:06:27.488Z,95817.19
2023-01-17T20:08:54.799Z,95811.28
2023-01-17T20:11:23.857Z,95810.56
2023-01-17T20:13:56.248Z,95818.41
2023-01-17T20:16:24.705Z,95814.47
2023-01-17T20:18:51.842Z,95817.16
2023-01-17T20:21:18.352Z,95813.00
2023-01-17T20:23:50.033Z,95814.84
2023-01-17T20:26:23.414Z,95811.63
2023-01-17T20:28:54.604Z,95815.16
2023-01-17T20:31:23.747Z,95816.81
2023-01-17T20:33:52.564Z,95816.72
2023-01-17T20:36:21.234Z,95818.22
2023-01-17T20:38:48.855Z,95823.09
2023-01-17T20:41:17.504Z,95825.75
2023-01-17T20:43:46.030Z,95833.44
2023-01-17T20:46:13.180Z,95834.16
2023-01-17T20:48:51.387Z,95832.41
2023-01-17T20:51:18.970Z,95831.56
2023-01-17T20:53:47.030Z,95832.41
2023-01-17T20:56:15.508Z,95829.00
2023-01-17T20:58:42.567Z,95831.28
2023-01-17T21:01:10.754Z,95832.00
2023-01-17T21:03:39.182Z,95837.47
2023-01-17T21:06:08.409Z,95832.22
2023-01-17T21:08:38.958Z,95830.16
2023-01-17T21:11:07.039Z,95836.78
2023-01-17T21:13:33.987Z,95844.53
2023-01-17T21:16:00.863Z,95843.59
2023-01-17T21:18:31.571Z,95845.16
2023-01-17T21:21:11.011Z,95850.25
2023-01-17T21:23:39.249Z,95852.72
2023-01-17T21:26:07.113Z,95852.63
2023-01-17T21:28:37.345Z,95844.69
2023-01-17T21:31:31.109Z,95848.00
2023-01-17T21:34:04.388Z,95849.75
2023-01-17T21:36:33.759Z,95850.56
2023-01-17T21:39:04.788Z,95848.72
2023-01-17T21:41:33.596Z,95854.94
2023-01-17T21:44:02.760Z,95849.66
2023-01-17T21:46:29.876Z,95863.28
2023-01-17T21:48:57.555Z,95853.16
2023-01-17T21:51:24.748Z,95855.53
2023-01-17T21:53:51.393Z,95851.94
2023-01-17T21:56:36.604Z,95859.59
2023-01-17T21:59:03.451Z,95859.91
2023-01-17T22:01:33.108Z,95852.94
2023-01-17T22:04:01.561Z,95853.78
2023-01-17T22:06:30.647Z,95860.63
2023-01-17T22:08:57.927Z,95859.59
2023-01-17T22:11:26.239Z,95858.56
2023-01-17T22:13:53.244Z,95855.16
2023-01-17T22:16:23.377Z,95858.56
2023-01-17T22:18:50.838Z,95859.41
2023-01-17T22:21:19.280Z,95869.44
2023-01-17T22:23:47.709Z,95874.63
2023-01-17T22:26:15.153Z,95868.41
2023-01-17T22:28:42.848Z,95868.41
2023-01-17T22:31:13.860Z,95869.34
2023-01-17T22:33:41.240Z,95873.34
2023-01-17T22:36:09.161Z,95874.91
2023-01-17T22:38:36.242Z,95870.34
2023-01-17T22:41:08.007Z,95875.00
2023-01-17T22:43:43.442Z,95880.16
2023-01-17T22:46:12.813Z,95880.88
2023-01-17T22:48:40.083Z,95884.03
2023-01-17T22:51:09.700Z,95884.94
2023-01-17T22:53:41.419Z,95889.06
2023-01-17T22:56:22.570Z,95882.06
2023-01-17T22:58:49.433Z,95885.56
2023-01-17T23:01:21.640Z,95883.28
2023-01-17T23:04:02.809Z,95886.50
2023-01-17T23:06:33.157Z,95882.66
2023-01-17T23:09:02.609Z,95876.75
2023-01-17T23:11:39.188Z,95881.09
2023-01-17T23:14:06.815Z,95881.19
2023-01-17T23:16:51.970Z,95888.09
2023-01-17T23:19:24.736Z,95887.28
2023-01-17T23:22:16.036Z,95887.28
2023-01-17T23:24:50.134Z,95884.50
2023-01-17T23:27:45.346Z,95884.59
2023-01-17T23:30:13.996Z,95883.59
2023-01-17T23:32:46.423Z,95885.03
2023-01-17T23:35:13.429Z,95891.94
2023-01-17T23:37:58.603Z,95883.78
2023-01-17T23:40:25.188Z,95887.28
2023-01-17T23:43:10.549Z,95889.03
2023-01-17T23:45:38.795Z,95884.69
2023-01-17T23:48:09.620Z,95886.47
2023-01-17T23:50:38.191Z,95891.72
2023-01-17T23:53:08.147Z,95883.34
2023-01-17T23:55:39.553Z,95890.06
2023-01-17T23:58:08.425Z,95884.69
